sensor_id;sensor_type;location;lat;lon;timestamp;P1;durP1;ratioP1;P2;durP2;ratioP2
52304;SDS011;38248;52.722;6.734;2022-09-01T00:00:51;3.55;;;1.50;;
52304;SDS011;38248;52.722;6.734;2022-09-01T00:03:18;1.80;;;1.55;;
52304;SDS011;38248;52.722;6.734;2022-09-01T00:05:47;2.78;;;1.42;;
52304;SDS011;38248;52.722;6.734;2022-09-01T00:08:19;2.60;;;1.40;;
52304;SDS011;38248;52.722;6.734;2022-09-01T00:10:48;4.68;;;1.58;;
52304;SDS011;38248;52.722;6.734;2022-09-01T00:13:14;4.10;;;1.33;;
52304;SDS011;38248;52.722;6.734;2022-09-01T00:15:41;3.72;;;1.30;;
52304;SDS011;38248;52.722;6.734;2022-09-01T00:18:07;2.92;;;1.30;;
52304;SDS011;38248;52.722;6.734;2022-09-01T00:20:33;5.40;;;1.48;;
52304;SDS011;38248;52.722;6.734;2022-09-01T00:22:58;2.40;;;1.38;;
52304;SDS011;38248;52.722;6.734;2022-09-01T00:25:25;2.58;;;1.55;;
52304;SDS011;38248;52.722;6.734;2022-09-01T00:27:52;3.47;;;1.30;;
52304;SDS011;38248;52.722;6.734;2022-09-01T00:30:18;1.75;;;1.42;;
52304;SDS011;38248;52.722;6.734;2022-09-01T00:32:44;2.13;;;1.33;;
52304;SDS011;38248;52.722;6.734;2022-09-01T00:35:14;5.05;;;2.00;;
52304;SDS011;38248;52.722;6.734;2022-09-01T00:37:42;2.65;;;1.30;;
52304;SDS011;38248;52.722;6.734;2022-09-01T00:40:08;3.42;;;2.10;;
52304;SDS011;38248;52.722;6.734;2022-09-01T00:42:37;2.03;;;1.05;;
52304;SDS011;38248;52.722;6.734;2022-09-01T00:45:04;2.55;;;1.30;;
52304;SDS011;38248;52.722;6.734;2022-09-01T00:47:31;2.10;;;1.48;;
52304;SDS011;38248;52.722;6.734;2022-09-01T00:49:56;3.47;;;1.27;;
52304;SDS011;38248;52.722;6.734;2022-09-01T00:52:56;2.70;;;1.30;;
52304;SDS011;38248;52.722;6.734;2022-09-01T00:57:45;2.10;;;1.48;;
52304;SDS011;38248;52.722;6.734;2022-09-01T01:00:19;3.50;;;1.60;;
52304;SDS011;38248;52.722;6.734;2022-09-01T01:02:48;1.75;;;1.58;;
52304;SDS011;38248;52.722;6.734;2022-09-01T01:05:19;3.25;;;1.45;;
52304;SDS011;38248;52.722;6.734;2022-09-01T01:07:47;2.60;;;1.60;;
52304;SDS011;38248;52.722;6.734;2022-09-01T01:10:14;4.28;;;1.60;;
52304;SDS011;38248;52.722;6.734;2022-09-01T01:12:41;3.58;;;1.88;;
52304;SDS011;38248;52.722;6.734;2022-09-01T01:15:09;1.95;;;1.65;;
52304;SDS011;38248;52.722;6.734;2022-09-01T01:17:36;3.10;;;1.80;;
52304;SDS011;38248;52.722;6.734;2022-09-01T01:20:02;2.03;;;1.50;;
52304;SDS011;38248;52.722;6.734;2022-09-01T01:25:41;3.50;;;2.05;;
52304;SDS011;38248;52.722;6.734;2022-09-01T01:28:13;3.53;;;1.55;;
52304;SDS011;38248;52.722;6.734;2022-09-01T01:30:45;3.40;;;1.55;;
52304;SDS011;38248;52.722;6.734;2022-09-01T01:33:18;1.60;;;1.30;;
52304;SDS011;38248;52.722;6.734;2022-09-01T01:35:46;2.58;;;1.50;;
52304;SDS011;38248;52.722;6.734;2022-09-01T01:38:13;2.10;;;1.80;;
52304;SDS011;38248;52.722;6.734;2022-09-01T01:40:40;3.40;;;1.70;;
52304;SDS011;38248;52.722;6.734;2022-09-01T01:43:06;4.13;;;2.00;;
52304;SDS011;38248;52.722;6.734;2022-09-01T01:45:32;1.75;;;1.60;;
52304;SDS011;38248;52.722;6.734;2022-09-01T01:47:59;2.58;;;1.50;;
52304;SDS011;38248;52.722;6.734;2022-09-01T01:50:29;4.05;;;1.40;;
52304;SDS011;38248;52.722;6.734;2022-09-01T01:53:00;1.95;;;1.52;;
52304;SDS011;38248;52.722;6.734;2022-09-01T01:55:28;2.33;;;1.55;;
52304;SDS011;38248;52.722;6.734;2022-09-01T01:57:55;2.00;;;1.58;;
52304;SDS011;38248;52.722;6.734;2022-09-01T02:00:23;3.10;;;1.90;;
52304;SDS011;38248;52.722;6.734;2022-09-01T02:02:56;4.38;;;1.40;;
52304;SDS011;38248;52.722;6.734;2022-09-01T02:05:26;3.45;;;1.83;;
52304;SDS011;38248;52.722;6.734;2022-09-01T02:07:54;2.63;;;1.70;;
52304;SDS011;38248;52.722;6.734;2022-09-01T02:10:28;2.75;;;1.38;;
52304;SDS011;38248;52.722;6.734;2022-09-01T02:12:58;1.90;;;1.52;;
52304;SDS011;38248;52.722;6.734;2022-09-01T02:15:30;2.45;;;1.55;;
52304;SDS011;38248;52.722;6.734;2022-09-01T02:18:00;5.70;;;1.77;;
52304;SDS011;38248;52.722;6.734;2022-09-01T02:20:26;2.45;;;1.15;;
52304;SDS011;38248;52.722;6.734;2022-09-01T02:22:57;1.85;;;1.33;;
52304;SDS011;38248;52.722;6.734;2022-09-01T02:25:28;3.30;;;1.65;;
52304;SDS011;38248;52.722;6.734;2022-09-01T02:27:55;4.13;;;1.70;;
52304;SDS011;38248;52.722;6.734;2022-09-01T02:30:21;2.22;;;1.83;;
52304;SDS011;38248;52.722;6.734;2022-09-01T02:32:48;2.75;;;1.65;;
52304;SDS011;38248;52.722;6.734;2022-09-01T02:35:14;2.10;;;1.70;;
52304;SDS011;38248;52.722;6.734;2022-09-01T02:37:40;2.25;;;1.90;;
52304;SDS011;38248;52.722;6.734;2022-09-01T02:40:07;4.85;;;2.15;;
52304;SDS011;38248;52.722;6.734;2022-09-01T02:42:35;3.15;;;2.20;;
52304;SDS011;38248;52.722;6.734;2022-09-01T02:45:05;2.38;;;1.77;;
52304;SDS011;38248;52.722;6.734;2022-09-01T02:47:39;3.28;;;2.08;;
52304;SDS011;38248;52.722;6.734;2022-09-01T02:50:10;2.45;;;1.92;;
52304;SDS011;38248;52.722;6.734;2022-09-01T02:52:41;2.88;;;1.73;;
52304;SDS011;38248;52.722;6.734;2022-09-01T02:55:08;2.33;;;1.90;;
52304;SDS011;38248;52.722;6.734;2022-09-01T02:57:34;4.75;;;1.77;;
52304;SDS011;38248;52.722;6.734;2022-09-01T03:00:00;3.85;;;1.80;;
52304;SDS011;38248;52.722;6.734;2022-09-01T03:02:29;2.80;;;1.60;;
52304;SDS011;38248;52.722;6.734;2022-09-01T03:04:55;4.72;;;2.08;;
52304;SDS011;38248;52.722;6.734;2022-09-01T03:07:21;2.35;;;2.05;;
52304;SDS011;38248;52.722;6.734;2022-09-01T03:09:49;2.55;;;1.70;;
52304;SDS011;38248;52.722;6.734;2022-09-01T03:12:16;2.80;;;2.05;;
52304;SDS011;38248;52.722;6.734;2022-09-01T03:14:44;2.90;;;2.22;;
52304;SDS011;38248;52.722;6.734;2022-09-01T03:17:10;2.53;;;1.88;;
52304;SDS011;38248;52.722;6.734;2022-09-01T03:19:36;2.17;;;1.80;;
52304;SDS011;38248;52.722;6.734;2022-09-01T03:22:05;2.47;;;2.00;;
52304;SDS011;38248;52.722;6.734;2022-09-01T03:24:31;2.70;;;1.73;;
52304;SDS011;38248;52.722;6.734;2022-09-01T03:26:57;6.30;;;2.10;;
52304;SDS011;38248;52.722;6.734;2022-09-01T03:29:22;3.83;;;1.73;;
52304;SDS011;38248;52.722;6.734;2022-09-01T03:31:48;1.85;;;1.67;;
52304;SDS011;38248;52.722;6.734;2022-09-01T03:34:14;2.20;;;1.90;;
52304;SDS011;38248;52.722;6.734;2022-09-01T03:36:40;5.28;;;2.42;;
52304;SDS011;38248;52.722;6.734;2022-09-01T03:39:14;2.65;;;1.70;;
52304;SDS011;38248;52.722;6.734;2022-09-01T03:41:42;5.25;;;2.00;;
52304;SDS011;38248;52.722;6.734;2022-09-01T03:44:09;4.00;;;2.03;;
52304;SDS011;38248;52.722;6.734;2022-09-01T03:46:36;2.53;;;1.60;;
52304;SDS011;38248;52.722;6.734;2022-09-01T03:49:04;2.72;;;1.90;;
52304;SDS011;38248;52.722;6.734;2022-09-01T03:51:37;2.67;;;2.47;;
52304;SDS011;38248;52.722;6.734;2022-09-01T03:54:03;4.68;;;2.08;;
52304;SDS011;38248;52.722;6.734;2022-09-01T03:56:29;3.28;;;1.65;;
52304;SDS011;38248;52.722;6.734;2022-09-01T03:58:56;1.90;;;1.63;;
52304;SDS011;38248;52.722;6.734;2022-09-01T04:01:23;2.58;;;1.80;;
52304;SDS011;38248;52.722;6.734;2022-09-01T04:03:50;2.72;;;1.92;;
52304;SDS011;38248;52.722;6.734;2022-09-01T04:06:16;3.30;;;1.63;;
52304;SDS011;38248;52.722;6.734;2022-09-01T04:08:45;2.50;;;1.90;;
52304;SDS011;38248;52.722;6.734;2022-09-01T04:11:15;4.22;;;2.45;;
52304;SDS011;38248;52.722;6.734;2022-09-01T04:13:42;1.90;;;1.70;;
52304;SDS011;38248;52.722;6.734;2022-09-01T04:16:19;3.67;;;2.17;;
52304;SDS011;38248;52.722;6.734;2022-09-01T04:19:08;3.55;;;1.75;;
52304;SDS011;38248;52.722;6.734;2022-09-01T04:21:44;2.08;;;1.70;;
52304;SDS011;38248;52.722;6.734;2022-09-01T04:24:11;2.33;;;1.63;;
52304;SDS011;38248;52.722;6.734;2022-09-01T04:26:39;2.17;;;1.67;;
52304;SDS011;38248;52.722;6.734;2022-09-01T04:29:05;2.17;;;1.55;;
52304;SDS011;38248;52.722;6.734;2022-09-01T04:31:33;2.67;;;1.80;;
52304;SDS011;38248;52.722;6.734;2022-09-01T04:34:02;2.92;;;2.20;;
52304;SDS011;38248;52.722;6.734;2022-09-01T04:36:37;2.45;;;2.00;;
52304;SDS011;38248;52.722;6.734;2022-09-01T04:39:08;3.25;;;1.75;;
52304;SDS011;38248;52.722;6.734;2022-09-01T04:41:36;3.28;;;1.70;;
52304;SDS011;38248;52.722;6.734;2022-09-01T04:44:04;4.30;;;1.90;;
52304;SDS011;38248;52.722;6.734;2022-09-01T04:46:32;4.50;;;2.10;;
52304;SDS011;38248;52.722;6.734;2022-09-01T04:49:03;2.08;;;1.98;;
52304;SDS011;38248;52.722;6.734;2022-09-01T04:51:38;1.58;;;1.48;;
52304;SDS011;38248;52.722;6.734;2022-09-01T04:54:08;2.03;;;1.83;;
52304;SDS011;38248;52.722;6.734;2022-09-01T04:56:38;3.40;;;1.65;;
52304;SDS011;38248;52.722;6.734;2022-09-01T04:59:05;2.30;;;2.10;;
52304;SDS011;38248;52.722;6.734;2022-09-01T05:01:35;2.42;;;1.92;;
52304;SDS011;38248;52.722;6.734;2022-09-01T05:04:07;3.45;;;1.75;;
52304;SDS011;38248;52.722;6.734;2022-09-01T05:06:46;3.75;;;1.88;;
52304;SDS011;38248;52.722;6.734;2022-09-01T05:09:15;2.03;;;1.90;;
52304;SDS011;38248;52.722;6.734;2022-09-01T05:11:41;3.25;;;2.28;;
52304;SDS011;38248;52.722;6.734;2022-09-01T05:14:10;1.40;;;1.30;;
52304;SDS011;38248;52.722;6.734;2022-09-01T05:16:42;2.95;;;1.40;;
52304;SDS011;38248;52.722;6.734;2022-09-01T05:19:09;2.58;;;1.50;;
52304;SDS011;38248;52.722;6.734;2022-09-01T05:21:42;3.40;;;1.60;;
52304;SDS011;38248;52.722;6.734;2022-09-01T05:24:10;2.25;;;1.23;;
52304;SDS011;38248;52.722;6.734;2022-09-01T05:26:43;2.15;;;1.63;;
52304;SDS011;38248;52.722;6.734;2022-09-01T05:29:13;3.53;;;1.98;;
52304;SDS011;38248;52.722;6.734;2022-09-01T05:31:42;2.40;;;2.05;;
52304;SDS011;38248;52.722;6.734;2022-09-01T05:34:09;2.22;;;1.50;;
52304;SDS011;38248;52.722;6.734;2022-09-01T05:36:37;2.75;;;1.10;;
52304;SDS011;38248;52.722;6.734;2022-09-01T05:39:09;2.70;;;1.70;;
52304;SDS011;38248;52.722;6.734;2022-09-01T05:41:36;1.70;;;1.50;;
52304;SDS011;38248;52.722;6.734;2022-09-01T05:44:04;2.20;;;1.50;;
52304;SDS011;38248;52.722;6.734;2022-09-01T05:46:32;2.83;;;1.48;;
52304;SDS011;38248;52.722;6.734;2022-09-01T05:49:01;1.77;;;1.48;;
52304;SDS011;38248;52.722;6.734;2022-09-01T05:51:28;2.90;;;1.30;;
52304;SDS011;38248;52.722;6.734;2022-09-01T05:53:56;2.90;;;1.52;;
52304;SDS011;38248;52.722;6.734;2022-09-01T05:56:23;1.85;;;1.13;;
52304;SDS011;38248;52.722;6.734;2022-09-01T05:58:51;6.88;;;1.85;;
52304;SDS011;38248;52.722;6.734;2022-09-01T06:01:24;2.75;;;1.38;;
52304;SDS011;38248;52.722;6.734;2022-09-01T06:03:52;7.03;;;1.58;;
52304;SDS011;38248;52.722;6.734;2022-09-01T06:06:20;4.97;;;1.50;;
52304;SDS011;38248;52.722;6.734;2022-09-01T06:08:49;2.58;;;1.33;;
52304;SDS011;38248;52.722;6.734;2022-09-01T06:11:15;2.63;;;1.20;;
52304;SDS011;38248;52.722;6.734;2022-09-01T06:13:45;2.35;;;1.40;;
52304;SDS011;38248;52.722;6.734;2022-09-01T06:16:14;4.07;;;1.33;;
52304;SDS011;38248;52.722;6.734;2022-09-01T06:18:40;2.55;;;1.40;;
52304;SDS011;38248;52.722;6.734;2022-09-01T06:21:07;3.20;;;1.52;;
52304;SDS011;38248;52.722;6.734;2022-09-01T06:23:38;1.77;;;1.27;;
52304;SDS011;38248;52.722;6.734;2022-09-01T06:26:05;1.58;;;1.15;;
52304;SDS011;38248;52.722;6.734;2022-09-01T06:28:32;2.60;;;1.13;;
52304;SDS011;38248;52.722;6.734;2022-09-01T06:30:58;1.63;;;1.42;;
52304;SDS011;38248;52.722;6.734;2022-09-01T06:33:25;3.65;;;1.45;;
52304;SDS011;38248;52.722;6.734;2022-09-01T06:35:51;2.10;;;1.10;;
52304;SDS011;38248;52.722;6.734;2022-09-01T06:38:19;2.97;;;1.38;;
52304;SDS011;38248;52.722;6.734;2022-09-01T06:40:45;1.65;;;1.40;;
52304;SDS011;38248;52.722;6.734;2022-09-01T06:43:12;2.40;;;1.20;;
52304;SDS011;38248;52.722;6.734;2022-09-01T06:45:44;6.78;;;1.50;;
52304;SDS011;38248;52.722;6.734;2022-09-01T06:48:18;3.72;;;1.55;;
52304;SDS011;38248;52.722;6.734;2022-09-01T06:50:44;3.00;;;1.40;;
52304;SDS011;38248;52.722;6.734;2022-09-01T06:53:10;4.47;;;1.45;;
52304;SDS011;38248;52.722;6.734;2022-09-01T06:55:39;4.50;;;1.05;;
52304;SDS011;38248;52.722;6.734;2022-09-01T06:58:05;2.03;;;1.40;;
52304;SDS011;38248;52.722;6.734;2022-09-01T07:00:33;2.83;;;1.75;;
52304;SDS011;38248;52.722;6.734;2022-09-01T07:03:06;2.23;;;1.57;;
52304;SDS011;38248;52.722;6.734;2022-09-01T07:05:39;2.28;;;1.60;;
52304;SDS011;38248;52.722;6.734;2022-09-01T07:08:06;3.63;;;1.27;;
52304;SDS011;38248;52.722;6.734;2022-09-01T07:10:38;5.15;;;1.48;;
52304;SDS011;38248;52.722;6.734;2022-09-01T07:13:09;2.13;;;1.20;;
52304;SDS011;38248;52.722;6.734;2022-09-01T07:15:40;3.00;;;1.10;;
52304;SDS011;38248;52.722;6.734;2022-09-01T07:18:07;2.58;;;1.35;;
52304;SDS011;38248;52.722;6.734;2022-09-01T07:20:34;3.08;;;1.70;;
52304;SDS011;38248;52.722;6.734;2022-09-01T07:23:03;2.35;;;1.30;;
52304;SDS011;38248;52.722;6.734;2022-09-01T07:25:30;4.20;;;1.83;;
52304;SDS011;38248;52.722;6.734;2022-09-01T07:27:58;2.90;;;1.58;;
52304;SDS011;38248;52.722;6.734;2022-09-01T07:30:24;9.70;;;1.08;;
52304;SDS011;38248;52.722;6.734;2022-09-01T07:32:49;4.50;;;1.08;;
52304;SDS011;38248;52.722;6.734;2022-09-01T07:35:17;3.22;;;1.20;;
52304;SDS011;38248;52.722;6.734;2022-09-01T07:37:45;7.93;;;1.23;;
52304;SDS011;38248;52.722;6.734;2022-09-01T07:40:14;3.83;;;1.20;;
52304;SDS011;38248;52.722;6.734;2022-09-01T07:42:42;2.25;;;1.08;;
52304;SDS011;38248;52.722;6.734;2022-09-01T07:45:11;2.13;;;0.90;;
52304;SDS011;38248;52.722;6.734;2022-09-01T07:47:39;2.85;;;1.33;;
52304;SDS011;38248;52.722;6.734;2022-09-01T07:50:06;1.45;;;1.10;;
52304;SDS011;38248;52.722;6.734;2022-09-01T07:52:37;1.55;;;1.42;;
52304;SDS011;38248;52.722;6.734;2022-09-01T07:55:08;4.00;;;1.15;;
52304;SDS011;38248;52.722;6.734;2022-09-01T07:57:41;1.83;;;1.20;;
52304;SDS011;38248;52.722;6.734;2022-09-01T08:00:10;2.15;;;1.20;;
52304;SDS011;38248;52.722;6.734;2022-09-01T08:02:37;3.95;;;1.00;;
52304;SDS011;38248;52.722;6.734;2022-09-01T08:05:08;4.05;;;1.10;;
52304;SDS011;38248;52.722;6.734;2022-09-01T08:07:35;3.97;;;0.90;;
52304;SDS011;38248;52.722;6.734;2022-09-01T08:10:02;6.18;;;0.93;;
52304;SDS011;38248;52.722;6.734;2022-09-01T08:12:32;5.53;;;1.10;;
52304;SDS011;38248;52.722;6.734;2022-09-01T08:15:00;3.78;;;1.17;;
52304;SDS011;38248;52.722;6.734;2022-09-01T08:17:26;2.78;;;1.02;;
52304;SDS011;38248;52.722;6.734;2022-09-01T08:19:51;3.03;;;0.88;;
52304;SDS011;38248;52.722;6.734;2022-09-01T08:22:17;0.90;;;0.60;;
52304;SDS011;38248;52.722;6.734;2022-09-01T08:24:50;7.57;;;0.98;;
52304;SDS011;38248;52.722;6.734;2022-09-01T08:27:17;3.05;;;1.00;;
52304;SDS011;38248;52.722;6.734;2022-09-01T08:29:42;1.40;;;0.77;;
52304;SDS011;38248;52.722;6.734;2022-09-01T08:32:08;2.15;;;0.90;;
52304;SDS011;38248;52.722;6.734;2022-09-01T08:34:38;2.50;;;1.13;;
52304;SDS011;38248;52.722;6.734;2022-09-01T08:37:04;2.15;;;0.68;;
52304;SDS011;38248;52.722;6.734;2022-09-01T08:39:33;2.20;;;0.80;;
52304;SDS011;38248;52.722;6.734;2022-09-01T08:42:12;4.60;;;0.75;;
52304;SDS011;38248;52.722;6.734;2022-09-01T08:45:03;2.45;;;0.77;;
52304;SDS011;38248;52.722;6.734;2022-09-01T08:47:44;3.25;;;0.70;;
52304;SDS011;38248;52.722;6.734;2022-09-01T08:50:10;2.40;;;0.70;;
52304;SDS011;38248;52.722;6.734;2022-09-01T08:52:44;2.05;;;0.52;;
52304;SDS011;38248;52.722;6.734;2022-09-01T08:55:21;2.17;;;0.50;;
52304;SDS011;38248;52.722;6.734;2022-09-01T08:57:55;3.35;;;0.40;;
52304;SDS011;38248;52.722;6.734;2022-09-01T09:00:25;1.63;;;0.40;;
52304;SDS011;38248;52.722;6.734;2022-09-01T09:02:56;1.73;;;0.40;;
52304;SDS011;38248;52.722;6.734;2022-09-01T09:08:24;2.65;;;0.47;;
52304;SDS011;38248;52.722;6.734;2022-09-01T09:11:07;3.03;;;0.50;;
52304;SDS011;38248;52.722;6.734;2022-09-01T09:16:55;0.95;;;0.45;;
52304;SDS011;38248;52.722;6.734;2022-09-01T09:19:38;2.60;;;0.57;;
52304;SDS011;38248;52.722;6.734;2022-09-01T09:22:13;1.15;;;0.40;;
52304;SDS011;38248;52.722;6.734;2022-09-01T09:27:34;1.70;;;0.30;;
52304;SDS011;38248;52.722;6.734;2022-09-01T09:32:45;2.92;;;0.70;;
52304;SDS011;38248;52.722;6.734;2022-09-01T09:35:26;1.30;;;0.50;;
52304;SDS011;38248;52.722;6.734;2022-09-01T09:43:32;0.90;;;0.60;;
52304;SDS011;38248;52.722;6.734;2022-09-01T09:51:54;2.13;;;0.50;;
52304;SDS011;38248;52.722;6.734;2022-09-01T09:54:26;2.15;;;0.52;;
52304;SDS011;38248;52.722;6.734;2022-09-01T09:59:45;1.38;;;0.32;;
52304;SDS011;38248;52.722;6.734;2022-09-01T10:02:22;1.73;;;0.40;;
52304;SDS011;38248;52.722;6.734;2022-09-01T10:04:56;0.70;;;0.28;;
52304;SDS011;38248;52.722;6.734;2022-09-01T10:07:35;2.22;;;0.50;;
52304;SDS011;38248;52.722;6.734;2022-09-01T10:10:06;2.33;;;0.40;;
52304;SDS011;38248;52.722;6.734;2022-09-01T10:12:51;3.05;;;0.70;;
52304;SDS011;38248;52.722;6.734;2022-09-01T10:15:18;2.53;;;0.60;;
52304;SDS011;38248;52.722;6.734;2022-09-01T10:17:50;0.77;;;0.32;;
52304;SDS011;38248;52.722;6.734;2022-09-01T10:20:19;0.65;;;0.30;;
52304;SDS011;38248;52.722;6.734;2022-09-01T10:22:47;1.33;;;0.60;;
52304;SDS011;38248;52.722;6.734;2022-09-01T10:25:35;1.08;;;0.43;;
52304;SDS011;38248;52.722;6.734;2022-09-01T10:28:17;1.38;;;0.35;;
52304;SDS011;38248;52.722;6.734;2022-09-01T10:30:48;0.98;;;0.47;;
52304;SDS011;38248;52.722;6.734;2022-09-01T10:33:17;1.60;;;0.30;;
52304;SDS011;38248;52.722;6.734;2022-09-01T10:35:47;1.27;;;0.40;;
52304;SDS011;38248;52.722;6.734;2022-09-01T10:38:18;1.00;;;0.35;;
52304;SDS011;38248;52.722;6.734;2022-09-01T10:43:47;2.47;;;0.40;;
52304;SDS011;38248;52.722;6.734;2022-09-01T10:48:48;1.70;;;0.40;;
52304;SDS011;38248;52.722;6.734;2022-09-01T11:07:01;0.93;;;0.30;;
52304;SDS011;38248;52.722;6.734;2022-09-01T11:09:40;1.48;;;0.40;;
52304;SDS011;38248;52.722;6.734;2022-09-01T11:20:23;1.08;;;0.30;;
52304;SDS011;38248;52.722;6.734;2022-09-01T11:25:44;0.47;;;0.20;;
52304;SDS011;38248;52.722;6.734;2022-09-01T11:36:12;0.88;;;0.32;;
52304;SDS011;38248;52.722;6.734;2022-09-01T11:38:48;1.25;;;0.57;;
52304;SDS011;38248;52.722;6.734;2022-09-01T11:44:09;1.90;;;0.50;;
52304;SDS011;38248;52.722;6.734;2022-09-01T11:47:06;0.93;;;0.30;;
52304;SDS011;38248;52.722;6.734;2022-09-01T11:49:36;3.35;;;0.43;;
52304;SDS011;38248;52.722;6.734;2022-09-01T11:52:21;1.75;;;0.32;;
52304;SDS011;38248;52.722;6.734;2022-09-01T11:54:48;1.13;;;0.30;;
52304;SDS011;38248;52.722;6.734;2022-09-01T11:59:45;1.75;;;0.40;;
52304;SDS011;38248;52.722;6.734;2022-09-01T12:02:25;0.95;;;0.50;;
52304;SDS011;38248;52.722;6.734;2022-09-01T12:04:57;1.63;;;0.50;;
52304;SDS011;38248;52.722;6.734;2022-09-01T12:07:26;1.25;;;0.40;;
52304;SDS011;38248;52.722;6.734;2022-09-01T12:10:59;0.82;;;0.45;;
52304;SDS011;38248;52.722;6.734;2022-09-01T12:13:00;2.85;;;0.30;;
52304;SDS011;38248;52.722;6.734;2022-09-01T12:15:26;0.50;;;0.40;;
52304;SDS011;38248;52.722;6.734;2022-09-01T12:17:52;0.52;;;0.38;;
52304;SDS011;38248;52.722;6.734;2022-09-01T12:20:43;2.03;;;0.43;;
52304;SDS011;38248;52.722;6.734;2022-09-01T12:23:33;2.17;;;0.45;;
52304;SDS011;38248;52.722;6.734;2022-09-01T12:26:10;1.10;;;0.35;;
52304;SDS011;38248;52.722;6.734;2022-09-01T12:28:39;1.88;;;0.47;;
52304;SDS011;38248;52.722;6.734;2022-09-01T12:31:07;0.55;;;0.30;;
52304;SDS011;38248;52.722;6.734;2022-09-01T12:33:39;0.68;;;0.20;;
52304;SDS011;38248;52.722;6.734;2022-09-01T12:36:21;0.93;;;0.28;;
52304;SDS011;38248;52.722;6.734;2022-09-01T12:38:47;3.22;;;0.40;;
52304;SDS011;38248;52.722;6.734;2022-09-01T12:49:33;0.65;;;0.40;;
52304;SDS011;38248;52.722;6.734;2022-09-01T12:52:07;0.47;;;0.38;;
52304;SDS011;38248;52.722;6.734;2022-09-01T12:54:34;0.60;;;0.30;;
52304;SDS011;38248;52.722;6.734;2022-09-01T12:57:00;1.58;;;0.65;;
52304;SDS011;38248;52.722;6.734;2022-09-01T12:59:29;0.93;;;0.30;;
52304;SDS011;38248;52.722;6.734;2022-09-01T13:01:54;1.98;;;0.40;;
52304;SDS011;38248;52.722;6.734;2022-09-01T13:04:23;1.33;;;0.20;;
52304;SDS011;38248;52.722;6.734;2022-09-01T13:07:04;1.02;;;0.35;;
52304;SDS011;38248;52.722;6.734;2022-09-01T13:09:31;2.15;;;0.40;;
52304;SDS011;38248;52.722;6.734;2022-09-01T13:12:12;3.72;;;0.22;;
52304;SDS011;38248;52.722;6.734;2022-09-01T13:14:41;1.75;;;0.28;;
52304;SDS011;38248;52.722;6.734;2022-09-01T13:17:07;1.00;;;0.40;;
52304;SDS011;38248;52.722;6.734;2022-09-01T13:19:32;1.58;;;0.30;;
52304;SDS011;38248;52.722;6.734;2022-09-01T13:21:58;0.68;;;0.25;;
52304;SDS011;38248;52.722;6.734;2022-09-01T13:24:24;1.58;;;0.30;;
52304;SDS011;38248;52.722;6.734;2022-09-01T13:26:49;0.40;;;0.40;;
52304;SDS011;38248;52.722;6.734;2022-09-01T13:29:20;0.80;;;0.30;;
52304;SDS011;38248;52.722;6.734;2022-09-01T13:31:45;3.78;;;0.57;;
52304;SDS011;38248;52.722;6.734;2022-09-01T13:34:11;1.00;;;0.30;;
52304;SDS011;38248;52.722;6.734;2022-09-01T13:36:36;1.52;;;0.30;;
52304;SDS011;38248;52.722;6.734;2022-09-01T13:39:02;1.02;;;0.40;;
52304;SDS011;38248;52.722;6.734;2022-09-01T13:41:28;0.85;;;0.25;;
52304;SDS011;38248;52.722;6.734;2022-09-01T13:43:55;1.27;;;0.20;;
52304;SDS011;38248;52.722;6.734;2022-09-01T13:46:21;0.45;;;0.20;;
52304;SDS011;38248;52.722;6.734;2022-09-01T13:48:47;1.00;;;0.30;;
52304;SDS011;38248;52.722;6.734;2022-09-01T13:51:22;24.45;;;1.70;;
52304;SDS011;38248;52.722;6.734;2022-09-01T13:53:52;2.85;;;0.50;;
52304;SDS011;38248;52.722;6.734;2022-09-01T13:56:20;0.47;;;0.20;;
52304;SDS011;38248;52.722;6.734;2022-09-01T13:58:46;1.08;;;0.20;;
52304;SDS011;38248;52.722;6.734;2022-09-01T14:01:12;0.98;;;0.30;;
52304;SDS011;38248;52.722;6.734;2022-09-01T14:03:39;2.55;;;0.35;;
52304;SDS011;38248;52.722;6.734;2022-09-01T14:06:05;0.68;;;0.40;;
52304;SDS011;38248;52.722;6.734;2022-09-01T14:08:31;1.10;;;0.32;;
52304;SDS011;38248;52.722;6.734;2022-09-01T14:10:58;0.40;;;0.22;;
52304;SDS011;38248;52.722;6.734;2022-09-01T14:13:24;1.95;;;0.30;;
52304;SDS011;38248;52.722;6.734;2022-09-01T14:15:52;3.53;;;0.50;;
52304;SDS011;38248;52.722;6.734;2022-09-01T14:18:20;2.38;;;0.30;;
52304;SDS011;38248;52.722;6.734;2022-09-01T14:20:47;1.20;;;0.38;;
52304;SDS011;38248;52.722;6.734;2022-09-01T14:23:15;1.10;;;0.30;;
52304;SDS011;38248;52.722;6.734;2022-09-01T14:25:45;1.13;;;0.55;;
52304;SDS011;38248;52.722;6.734;2022-09-01T14:28:13;2.58;;;0.50;;
52304;SDS011;38248;52.722;6.734;2022-09-01T14:30:40;3.45;;;0.43;;
52304;SDS011;38248;52.722;6.734;2022-09-01T14:33:12;1.48;;;0.30;;
52304;SDS011;38248;52.722;6.734;2022-09-01T14:35:39;0.90;;;0.22;;
52304;SDS011;38248;52.722;6.734;2022-09-01T14:38:06;0.45;;;0.30;;
52304;SDS011;38248;52.722;6.734;2022-09-01T14:40:33;3.97;;;0.35;;
52304;SDS011;38248;52.722;6.734;2022-09-01T14:43:01;1.65;;;0.50;;
52304;SDS011;38248;52.722;6.734;2022-09-01T14:45:29;0.60;;;0.30;;
52304;SDS011;38248;52.722;6.734;2022-09-01T14:47:56;2.17;;;0.52;;
52304;SDS011;38248;52.722;6.734;2022-09-01T14:50:25;0.82;;;0.50;;
52304;SDS011;38248;52.722;6.734;2022-09-01T14:52:53;1.67;;;0.30;;
52304;SDS011;38248;52.722;6.734;2022-09-01T14:55:25;2.45;;;0.30;;
52304;SDS011;38248;52.722;6.734;2022-09-01T14:57:52;0.95;;;0.25;;
52304;SDS011;38248;52.722;6.734;2022-09-01T15:00:19;0.38;;;0.25;;
52304;SDS011;38248;52.722;6.734;2022-09-01T15:02:46;1.13;;;0.30;;
52304;SDS011;38248;52.722;6.734;2022-09-01T15:05:14;1.13;;;0.28;;
52304;SDS011;38248;52.722;6.734;2022-09-01T15:07:40;0.47;;;0.20;;
52304;SDS011;38248;52.722;6.734;2022-09-01T15:10:08;0.55;;;0.38;;
52304;SDS011;38248;52.722;6.734;2022-09-01T15:12:35;1.48;;;0.20;;
52304;SDS011;38248;52.722;6.734;2022-09-01T15:15:04;1.85;;;0.70;;
52304;SDS011;38248;52.722;6.734;2022-09-01T15:17:31;1.63;;;0.35;;
52304;SDS011;38248;52.722;6.734;2022-09-01T15:19:58;0.63;;;0.32;;
52304;SDS011;38248;52.722;6.734;2022-09-01T15:22:44;0.73;;;0.38;;
52304;SDS011;38248;52.722;6.734;2022-09-01T15:25:11;1.15;;;0.30;;
52304;SDS011;38248;52.722;6.734;2022-09-01T15:27:37;0.45;;;0.40;;
52304;SDS011;38248;52.722;6.734;2022-09-01T15:30:05;0.55;;;0.20;;
52304;SDS011;38248;52.722;6.734;2022-09-01T15:32:43;1.45;;;0.20;;
52304;SDS011;38248;52.722;6.734;2022-09-01T15:35:10;0.70;;;0.20;;
52304;SDS011;38248;52.722;6.734;2022-09-01T15:37:37;0.47;;;0.20;;
52304;SDS011;38248;52.722;6.734;2022-09-01T15:40:03;1.00;;;0.30;;
52304;SDS011;38248;52.722;6.734;2022-09-01T15:42:31;0.80;;;0.32;;
52304;SDS011;38248;52.722;6.734;2022-09-01T15:44:57;2.03;;;0.32;;
52304;SDS011;38248;52.722;6.734;2022-09-01T15:47:23;1.00;;;0.30;;
52304;SDS011;38248;52.722;6.734;2022-09-01T15:49:51;2.40;;;0.40;;
52304;SDS011;38248;52.722;6.734;2022-09-01T15:52:16;2.28;;;0.80;;
52304;SDS011;38248;52.722;6.734;2022-09-01T15:54:42;0.45;;;0.20;;
52304;SDS011;38248;52.722;6.734;2022-09-01T15:57:08;2.92;;;0.55;;
52304;SDS011;38248;52.722;6.734;2022-09-01T15:59:36;2.38;;;0.20;;
52304;SDS011;38248;52.722;6.734;2022-09-01T16:02:04;1.25;;;0.30;;
52304;SDS011;38248;52.722;6.734;2022-09-01T16:04:31;0.70;;;0.40;;
52304;SDS011;38248;52.722;6.734;2022-09-01T16:06:57;2.20;;;0.30;;
52304;SDS011;38248;52.722;6.734;2022-09-01T16:09:23;2.70;;;0.30;;
52304;SDS011;38248;52.722;6.734;2022-09-01T16:11:50;1.55;;;0.55;;
52304;SDS011;38248;52.722;6.734;2022-09-01T16:14:17;4.32;;;0.40;;
52304;SDS011;38248;52.722;6.734;2022-09-01T16:19:52;0.57;;;0.43;;
52304;SDS011;38248;52.722;6.734;2022-09-01T16:22:36;1.08;;;0.40;;
52304;SDS011;38248;52.722;6.734;2022-09-01T16:28:17;1.42;;;0.22;;
52304;SDS011;38248;52.722;6.734;2022-09-01T16:30:51;1.48;;;0.22;;
52304;SDS011;38248;52.722;6.734;2022-09-01T16:33:25;0.70;;;0.22;;